createdAt,value
2022-09-25T00:00:50.031Z,3.50
2022-09-25T00:03:18.737Z,4.10
2022-09-25T00:05:47.698Z,3.50
2022-09-25T00:08:18.277Z,3.80
2022-09-25T00:10:48.046Z,3.43
2022-09-25T00:13:15.734Z,3.73
2022-09-25T00:15:48.098Z,3.23
2022-09-25T00:18:16.114Z,4.00
2022-09-25T00:20:43.387Z,4.03
2022-09-25T00:23:10.819Z,4.27
2022-09-25T00:25:39.613Z,3.93
2022-09-25T00:28:07.023Z,4.03
2022-09-25T00:30:34.563Z,4.00
2022-09-25T00:33:02.026Z,4.50
2022-09-25T00:35:29.418Z,4.17
2022-09-25T00:37:56.816Z,4.57
2022-09-25T00:40:24.658Z,4.37
2022-09-25T00:42:53.431Z,4.67
2022-09-25T00:45:21.656Z,4.77
2022-09-25T00:47:55.927Z,5.13
2022-09-25T00:50:31.392Z,4.53
2022-09-25T00:53:03.911Z,5.20
2022-09-25T00:55:33.396Z,5.40
2022-09-25T00:58:03.903Z,5.93
2022-09-25T01:00:32.778Z,4.00
2022-09-25T01:03:00.479Z,4.27
2022-09-25T01:05:32.147Z,3.97
2022-09-25T01:08:02.349Z,3.10
2022-09-25T01:10:30.156Z,3.23
2022-09-25T01:12:59.856Z,3.10
2022-09-25T01:15:43.882Z,3.23
2022-09-25T01:18:19.036Z,3.10
2022-09-25T01:21:08.067Z,3.57
2022-09-25T01:23:57.411Z,3.30
2022-09-25T01:26:44.707Z,3.23
2022-09-25T01:29:18.346Z,3.13
2022-09-25T01:31:53.056Z,3.83
2022-09-25T01:34:27.634Z,3.60
2022-09-25T01:36:59.806Z,4.47
2022-09-25T01:39:32.926Z,4.00
2022-09-25T01:42:06.886Z,4.13
2022-09-25T01:44:39.677Z,4.23
2022-09-25T01:47:10.388Z,3.80
2022-09-25T01:49:44.474Z,4.00
2022-09-25T01:52:17.002Z,4.83
2022-09-25T01:54:49.101Z,4.80
2022-09-25T01:57:22.063Z,5.20
2022-09-25T01:59:57.247Z,4.13
2022-09-25T02:02:29.286Z,4.77
2022-09-25T02:05:00.542Z,6.53
2022-09-25T02:07:32.576Z,6.40
2022-09-25T02:10:06.363Z,6.90
2022-09-25T02:12:40.743Z,6.53
2022-09-25T02:15:14.181Z,6.17
2022-09-25T02:18:06.430Z,5.80
2022-09-25T02:20:41.763Z,6.03
2022-09-25T02:23:17.970Z,5.53
2022-09-25T02:25:49.663Z,6.50
2022-09-25T02:28:17.227Z,6.53
2022-09-25T02:30:48.412Z,6.97
2022-09-25T02:33:16.135Z,6.80
2022-09-25T02:35:43.626Z,7.70
2022-09-25T02:38:11.114Z,6.00
2022-09-25T02:40:48.303Z,6.57
2022-09-25T02:43:29.234Z,6.53
2022-09-25T02:46:10.005Z,6.67
2022-09-25T02:48:47.490Z,6.00
2022-09-25T02:51:25.432Z,7.00
2022-09-25T02:54:06.519Z,6.63
2022-09-25T02:56:38.241Z,6.20
2022-09-25T02:59:09.588Z,5.97
2022-09-25T03:01:41.772Z,5.13
2022-09-25T03:04:10.894Z,5.87
2022-09-25T03:06:39.739Z,6.17
2022-09-25T03:09:10.004Z,5.70
2022-09-25T03:11:40.664Z,5.40
2022-09-25T03:14:08.209Z,6.50
2022-09-25T03:16:42.875Z,6.33
2022-09-25T03:19:10.374Z,5.97
2022-09-25T03:21:37.788Z,5.97
2022-09-25T03:24:05.648Z,6.30
2022-09-25T03:26:33.643Z,5.83
2022-09-25T03:29:02.264Z,6.37
2022-09-25T03:31:30.711Z,6.10
2022-09-25T03:33:59.691Z,6.43
2022-09-25T03:36:28.740Z,6.33
2022-09-25T03:38:58.851Z,6.23
2022-09-25T03:41:28.070Z,5.57
2022-09-25T03:43:56.602Z,5.93
2022-09-25T03:46:26.188Z,6.63
2022-09-25T03:48:54.774Z,6.60
2022-09-25T03:51:24.466Z,7.30
2022-09-25T03:53:52.353Z,6.50
2022-09-25T03:56:21.161Z,7.10
2022-09-25T03:58:49.560Z,6.97
2022-09-25T04:01:19.303Z,6.90
2022-09-25T04:03:47.255Z,7.07
2022-09-25T04:06:18.147Z,7.40
2022-09-25T04:08:47.558Z,6.93
2022-09-25T04:11:16.102Z,6.20
2022-09-25T04:13:43.987Z,7.13
2022-09-25T04:16:13.784Z,7.60
2022-09-25T04:18:42.763Z,7.50
2022-09-25T04:21:11.975Z,8.63
2022-09-25T04:23:40.247Z,8.40
2022-09-25T04:26:09.927Z,8.40
2022-09-25T04:28:37.833Z,8.47
2022-09-25T04:31:05.816Z,8.57
2022-09-25T04:33:47.836Z,8.47
2022-09-25T04:36:15.727Z,8.73
2022-09-25T04:38:43.807Z,8.33
2022-09-25T04:41:13.104Z,8.87
2022-09-25T04:43:41.240Z,8.73
2022-09-25T04:46:15.455Z,8.67
2022-09-25T04:48:46.987Z,8.70
2022-09-25T04:51:14.431Z,8.30
2022-09-25T04:53:42.695Z,8.37
2022-09-25T04:56:15.320Z,8.30
2022-09-25T04:58:47.249Z,9.30
2022-09-25T05:01:15.178Z,9.70
2022-09-25T05:03:43.293Z,9.23
2022-09-25T05:06:10.915Z,9.07
2022-09-25T05:08:38.328Z,9.27
2022-09-25T05:11:05.822Z,8.43
2022-09-25T05:13:34.707Z,9.33
2022-09-25T05:16:02.787Z,9.57
2022-09-25T05:18:30.256Z,10.00
2022-09-25T05:20:57.940Z,10.20
2022-09-25T05:23:25.473Z,9.77
2022-09-25T05:25:53.816Z,10.37
2022-09-25T05:28:23.267Z,10.27
2022-09-25T05:30:52.174Z,9.87
2022-09-25T05:33:19.903Z,8.90
2022-09-25T05:35:48.349Z,10.00
2022-09-25T05:38:15.993Z,9.57
2022-09-25T05:40:43.460Z,8.87
2022-09-25T05:43:12.371Z,10.43
2022-09-25T05:45:39.784Z,9.93
2022-09-25T05:48:09.811Z,9.83
2022-09-25T05:50:37.211Z,10.67
2022-09-25T05:53:06.160Z,8.90
2022-09-25T05:55:33.582Z,9.70
2022-09-25T05:58:02.439Z,10.53
2022-09-25T06:00:32.403Z,10.17
2022-09-25T06:02:59.931Z,9.53
2022-09-25T06:05:28.830Z,9.67
2022-09-25T06:07:56.985Z,9.27
2022-09-25T06:10:25.894Z,9.77
2022-09-25T06:12:56.111Z,9.93
2022-09-25T06:15:23.995Z,9.33
2022-09-25T06:17:51.407Z,9.50
2022-09-25T06:20:19.534Z,10.27
2022-09-25T06:22:54.469Z,10.10
2022-09-25T06:25:23.688Z,10.07
2022-09-25T06:27:53.192Z,9.57
2022-09-25T06:30:21.248Z,9.63
2022-09-25T06:32:49.038Z,9.80
2022-09-25T06:35:16.675Z,9.83
2022-09-25T06:37:44.109Z,10.00
2022-09-25T06:40:12.995Z,9.13
2022-09-25T06:42:40.424Z,9.03
2022-09-25T06:45:10.753Z,9.33
2022-09-25T06:47:38.327Z,9.03
2022-09-25T06:50:06.378Z,9.73
2022-09-25T06:52:33.807Z,8.63
2022-09-25T06:55:01.433Z,8.77
2022-09-25T06:57:30.431Z,9.57
2022-09-25T06:59:57.819Z,9.23
2022-09-25T07:02:42.987Z,8.70
2022-09-25T07:05:10.438Z,9.53
2022-09-25T07:07:37.900Z,8.97
2022-09-25T07:10:06.138Z,10.00
2022-09-25T07:12:35.031Z,9.10
2022-09-25T07:15:02.480Z,8.47
2022-09-25T07:17:29.901Z,10.00
2022-09-25T07:19:57.520Z,9.10
2022-09-25T07:22:25.075Z,9.13
2022-09-25T07:24:52.487Z,9.67
2022-09-25T07:27:20.008Z,8.53
2022-09-25T07:29:48.823Z,7.90
2022-09-25T07:32:16.222Z,8.37
2022-09-25T07:34:43.651Z,9.57
2022-09-25T07:37:11.336Z,8.37
2022-09-25T07:39:38.739Z,9.50
2022-09-25T07:42:06.775Z,9.43
2022-09-25T07:44:38.402Z,8.67
2022-09-25T07:47:08.871Z,9.53
2022-09-25T07:49:36.304Z,8.97
2022-09-25T07:52:06.202Z,10.10
2022-09-25T07:54:34.471Z,9.63
2022-09-25T07:57:01.859Z,9.63
2022-09-25T07:59:29.305Z,9.40
2022-09-25T08:01:58.009Z,8.97
2022-09-25T08:04:26.918Z,9.23
2022-09-25T08:06:54.605Z,9.37
2022-09-25T08:09:22.022Z,9.50
2022-09-25T08:11:49.440Z,9.37
2022-09-25T08:14:18.311Z,9.53
2022-09-25T08:16:47.394Z,8.57
2022-09-25T08:19:17.621Z,9.90
2022-09-25T08:21:46.535Z,10.27
2022-09-25T08:24:13.985Z,10.00
2022-09-25T08:26:41.574Z,10.57
2022-09-25T08:29:09.309Z,10.20
2022-09-25T08:31:36.817Z,10.13
2022-09-25T08:34:28.192Z,9.50
2022-09-25T08:36:53.336Z,9.63
2022-09-25T08:39:20.761Z,9.47
2022-09-25T08:41:51.092Z,10.10
2022-09-25T08:44:26.626Z,9.90
2022-09-25T08:47:19.546Z,9.60
2022-09-25T08:50:04.071Z,8.77
2022-09-25T08:52:33.686Z,10.10
2022-09-25T08:55:01.146Z,10.70
2022-09-25T08:57:34.856Z,10.07
2022-09-25T09:00:06.406Z,9.60
2022-09-25T09:02:42.003Z,9.00
2022-09-25T09:05:18.202Z,9.27
2022-09-25T09:07:51.148Z,9.63
2022-09-25T09:10:29.818Z,9.67
2022-09-25T09:13:02.058Z,8.97
2022-09-25T09:15:36.109Z,9.93
2022-09-25T09:18:17.689Z,9.03
2022-09-25T09:20:51.436Z,7.57
2022-09-25T09:23:21.923Z,8.00
2022-09-25T09:26:00.865Z,7.93
2022-09-25T09:28:53.808Z,7.50
2022-09-25T09:31:28.394Z,7.17
2022-09-25T09:34:26.027Z,7.37
2022-09-25T09:37:06.947Z,7.43
2022-09-25T09:39:43.724Z,6.80
2022-09-25T09:42:17.950Z,7.00
2022-09-25T09:44:59.438Z,6.57
2022-09-25T09:47:46.071Z,6.43
2022-09-25T09:50:43.348Z,6.10
2022-09-25T09:53:28.004Z,5.53
2022-09-25T09:56:01.524Z,5.40
2022-09-25T09:58:39.819Z,5.50
2022-09-25T10:01:29.076Z,5.30
2022-09-25T10:04:04.851Z,5.17
2022-09-25T10:06:36.927Z,5.00
2022-09-25T10:09:04.950Z,5.17
2022-09-25T10:11:34.874Z,5.43
2022-09-25T10:14:05.431Z,5.20
2022-09-25T10:16:33.775Z,4.27
2022-09-25T10:19:06.194Z,4.33
2022-09-25T10:21:41.958Z,4.10
2022-09-25T10:24:09.681Z,4.07
2022-09-25T10:26:40.247Z,4.60
2022-09-25T10:29:27.769Z,3.77
2022-09-25T10:32:00.270Z,3.93
2022-09-25T10:34:29.757Z,3.97
2022-09-25T10:36:57.203Z,3.60
2022-09-25T10:39:46.029Z,3.40
2022-09-25T10:42:35.363Z,3.50
2022-09-25T10:45:27.469Z,3.20
2022-09-25T10:48:12.612Z,3.00
2022-09-25T10:50:40.104Z,3.00
2022-09-25T10:53:29.840Z,2.93
2022-09-25T10:56:05.018Z,2.90
2022-09-25T10:58:39.089Z,2.77
2022-09-25T11:01:13.774Z,2.80
2022-09-25T11:03:50.236Z,2.77
2022-09-25T11:06:21.951Z,2.20
2022-09-25T11:08:56.147Z,3.17
2022-09-25T11:11:26.811Z,3.83
2022-09-25T11:13:59.779Z,4.00
2022-09-25T11:16:46.577Z,3.50
2022-09-25T11:19:16.476Z,3.40
2022-09-25T11:21:51.581Z,2.90
2022-09-25T11:24:25.358Z,2.57
2022-09-25T11:27:03.902Z,2.93
2022-09-25T11:29:42.772Z,3.07
2022-09-25T11:32:20.870Z,3.20
2022-09-25T11:35:13.915Z,3.40
2022-09-25T11:37:49.923Z,2.93
2022-09-25T11:40:47.476Z,3.00
2022-09-25T11:43:19.964Z,3.10
2022-09-25T11:45:52.257Z,3.03
2022-09-25T11:48:25.659Z,3.27
2022-09-25T11:51:05.530Z,3.50
2022-09-25T11:53:43.943Z,2.73
2022-09-25T11:56:32.975Z,3.10
2022-09-25T11:59:19.070Z,2.90
2022-09-25T12:01:51.258Z,2.83
2022-09-25T12:04:31.172Z,2.80
2022-09-25T12:07:14.935Z,2.60
2022-09-25T12:10:15.762Z,2.40
2022-09-25T12:12:50.726Z,2.40
2022-09-25T12:15:25.276Z,2.80
2022-09-25T12:18:04.144Z,3.00
2022-09-25T12:20:38.970Z,2.80
2022-09-25T12:23:16.717Z,2.50
2022-09-25T12:25:59.658Z,2.73
2022-09-25T12:28:40.739Z,2.63
2022-09-25T12:31:14.426Z,2.90
2022-09-25T12:33:51.862Z,2.83
2022-09-25T12:36:24.272Z,2.50
2022-09-25T12:38:55.269Z,2.93
2022-09-25T12:41:29.838Z,3.03
2022-09-25T12:44:05.455Z,2.90
2022-09-25T12:46:41.283Z,2.93
2022-09-25T12:49:15.795Z,2.50
2022-09-25T12:51:46.900Z,3.00
2022-09-25T12:54:24.843Z,2.97
2022-09-25T12:56:57.834Z,3.30
2022-09-25T12:59:33.750Z,3.00
2022-09-25T13:02:05.861Z,3.07
2022-09-25T13:04:48.374Z,2.73
2022-09-25T13:07:23.527Z,2.70
2022-09-25T13:09:50.993Z,3.07
2022-09-25T13:12:33.095Z,2.90
2022-09-25T13:15:06.699Z,2.90
2022-09-25T13:17:34.326Z,2.97
2022-09-25T13:20:52.966Z,3.00
2022-09-25T13:23:30.580Z,2.90
2022-09-25T13:26:01.341Z,2.90
2022-09-25T13:28:33.080Z,3.13
2022-09-25T13:31:09.924Z,2.80
2022-09-25T13:33:49.501Z,3.00
2022-09-25T13:36:35.214Z,3.10
2022-09-25T13:39:23.678Z,3.00
2022-09-25T13:41:54.996Z,3.27
2022-09-25T13:44:41.061Z,2.70
2022-09-25T13:47:34.570Z,2.63
2022-09-25T13:50:19.826Z,2.43
2022-09-25T13:53:20.315Z,2.80
2022-09-25T13:56:17.247Z,2.20
2022-09-25T13:59:26.349Z,2.27
2022-09-25T14:01:59.899Z,2.40
2022-09-25T14:04:34.803Z,2.40
2022-09-25T14:07:25.726Z,1.90
2022-09-25T14:09:56.371Z,2.13
2022-09-25T14:12:32.507Z,1.90
2022-09-25T14:15:05.773Z,1.83
2022-09-25T14:17:33.762Z,1.63
2022-09-25T14:20:04.409Z,1.50
2022-09-25T14:22:39.215Z,1.53
2022-09-25T14:25:28.035Z,1.70
2022-09-25T14:27:56.062Z,1.70
2022-09-25T14:30:29.039Z,1.73
2022-09-25T14:33:21.212Z,1.93
2022-09-25T14:35:59.521Z,1.50
2022-09-25T14:38:42.350Z,1.90
2022-09-25T14:41:43.839Z,1.50
2022-09-25T14:44:27.692Z,2.40
2022-09-25T14:46:57.331Z,1.60
2022-09-25T14:49:28.494Z,1.80
2022-09-25T14:52:00.261Z,2.17
2022-09-25T14:54:32.417Z,1.77
2022-09-25T14:57:03.802Z,1.87
2022-09-25T14:59:40.000Z,1.73
2022-09-25T15:02:18.015Z,1.60
2022-09-25T15:04:45.583Z,1.47
2022-09-25T15:07:17.345Z,1.97
2022-09-25T15:09:48.320Z,1.93
2022-09-25T15:12:24.790Z,2.10
2022-09-25T15:15:00.403Z,1.60
2022-09-25T15:17:28.821Z,1.70
2022-09-25T15:19:58.974Z,1.60
2022-09-25T15:22:31.997Z,1.63
2022-09-25T15:25:01.549Z,1.30
2022-09-25T15:27:31.089Z,1.40
2022-09-25T15:30:01.923Z,1.20
2022-09-25T15:32:36.631Z,1.30
2022-09-25T15:35:09.493Z,1.30
2022-09-25T15:37:37.422Z,1.40
2022-09-25T15:40:19.421Z,1.57
2022-09-25T15:42:49.626Z,1.40
2022-09-25T15:45:37.539Z,1.30
2022-09-25T15:48:15.677Z,1.30
2022-09-25T15:50:45.039Z,1.20
2022-09-25T15:53:21.117Z,1.30
2022-09-25T15:55:50.065Z,1.57
2022-09-25T15:58:21.813Z,1.80
2022-09-25T16:01:16.818Z,1.60
2022-09-25T16:04:06.608Z,1.30
2022-09-25T16:06:39.349Z,1.30
2022-09-25T16:09:11.509Z,1.53
2022-09-25T16:11:38.943Z,1.60
2022-09-25T16:14:29.011Z,1.77
2022-09-25T16:16:58.281Z,1.60
2022-09-25T16:19:32.283Z,1.40
2022-09-25T16:22:03.141Z,1.40
2022-09-25T16:24:31.617Z,1.10
2022-09-25T16:27:01.893Z,1.40
2022-09-25T16:29:32.553Z,1.30
2022-09-25T16:32:04.568Z,1.50
2022-09-25T16:34:35.060Z,1.07
2022-09-25T16:37:04.878Z,3.83
2022-09-25T16:39:36.587Z,2.67
2022-09-25T16:42:27.586Z,1.80
2022-09-25T16:45:03.994Z,1.60
2022-09-25T16:47:34.901Z,1.40
2022-09-25T16:50:02.597Z,1.30
2022-09-25T16:52:32.364Z,1.50
2022-09-25T16:55:00.932Z,1.63
2022-09-25T16:57:29.138Z,1.43
2022-09-25T16:59:58.757Z,1.60
2022-09-25T17:02:35.812Z,1.40
2022-09-25T17:05:05.300Z,1.43
2022-09-25T17:07:32.918Z,1.50
2022-09-25T17:10:01.351Z,1.50
2022-09-25T17:12:31.529Z,1.43
2022-09-25T17:15:00.560Z,1.40
2022-09-25T17:17:29.598Z,1.40
2022-09-25T17:19:57.122Z,1.60
2022-09-25T17:22:29.462Z,1.50
2022-09-25T17:24:59.934Z,1.60
2022-09-25T17:27:27.494Z,1.40
2022-09-25T17:29:54.986Z,1.30
2022-09-25T17:32:23.723Z,1.60
2022-09-25T17:34:51.220Z,1.53
2022-09-25T17:37:18.647Z,1.37
2022-09-25T17:39:46.292Z,1.60
2022-09-25T17:42:13.792Z,1.50
2022-09-25T17:44:42.506Z,1.43
2022-09-25T17:47:10.333Z,1.20
2022-09-25T17:49:39.075Z,1.20
2022-09-25T17:52:06.589Z,1.27
2022-09-25T17:54:34.174Z,1.30
2022-09-25T17:57:01.620Z,1.40
2022-09-25T17:59:29.009Z,1.50
2022-09-25T18:01:59.640Z,1.33
2022-09-25T18:04:27.589Z,1.40
2022-09-25T18:06:56.755Z,1.40
2022-09-25T18:09:24.182Z,1.27
2022-09-25T18:11:52.491Z,1.20
2022-09-25T18:14:19.943Z,1.40
2022-09-25T18:16:47.364Z,1.30
2022-09-25T18:19:35.000Z,1.40
2022-09-25T18:22:21.425Z,1.30
2022-09-25T18:24:54.124Z,1.23
2022-09-25T18:27:21.685Z,1.30
2022-09-25T18:29:49.108Z,1.50
2022-09-25T18:32:16.802Z,1.50
2022-09-25T18:34:44.301Z,1.70
2022-09-25T18:37:13.178Z,1.60
2022-09-25T18:39:40.629Z,1.40
2022-09-25T18:42:08.467Z,1.37
2022-09-25T18:44:42.326Z,1.50
2022-09-25T18:47:10.782Z,1.37
2022-09-25T18:49:38.337Z,1.40
2022-09-25T18:52:06.035Z,1.57
2022-09-25T18:54:34.999Z,1.20
2022-09-25T18:57:02.402Z,1.30
2022-09-25T18:59:30.360Z,1.40
2022-09-25T19:01:58.259Z,1.40
2022-09-25T19:04:26.568Z,1.23
2022-09-25T19:06:54.031Z,1.37
2022-09-25T19:09:24.067Z,1.40
2022-09-25T19:11:53.095Z,1.40
2022-09-25T19:14:20.760Z,1.17
2022-09-25T19:16:49.488Z,1.47
2022-09-25T19:19:16.874Z,1.00
2022-09-25T19:21:44.801Z,1.07
2022-09-25T19:24:12.460Z,1.40
2022-09-25T19:26:41.474Z,1.20
2022-09-25T19:29:10.333Z,1.17
2022-09-25T19:31:37.986Z,1.50
2022-09-25T19:34:05.570Z,1.30
2022-09-25T19:36:34.993Z,1.23
2022-09-25T19:39:03.371Z,2.30
2022-09-25T19:41:33.266Z,3.63
2022-09-25T19:44:04.137Z,4.60
2022-09-25T19:46:34.714Z,5.43
2022-09-25T19:49:02.341Z,8.07
2022-09-25T19:51:30.135Z,13.00
2022-09-25T19:53:57.560Z,17.40
2022-09-25T19:56:25.119Z,64.57
2022-09-25T19:58:52.538Z,44.80
2022-09-25T20:01:22.020Z,24.00
2022-09-25T20:03:51.227Z,12.10
2022-09-25T20:06:18.699Z,6.03
2022-09-25T20:08:46.705Z,4.10
2022-09-25T20:11:16.754Z,2.60
2022-09-25T20:13:44.511Z,2.20
2022-09-25T20:16:14.122Z,1.80
2022-09-25T20:18:42.115Z,1.70
2022-09-25T20:21:13.709Z,1.60
2022-09-25T20:23:41.128Z,1.70
2022-09-25T20:26:11.080Z,1.60
2022-09-25T20:28:40.047Z,1.40
2022-09-25T20:31:10.202Z,1.40
2022-09-25T20:33:38.416Z,1.30
2022-09-25T20:36:08.247Z,1.50
2022-09-25T20:38:37.855Z,1.60
2022-09-25T20:41:07.784Z,1.50
2022-09-25T20:43:35.635Z,1.53
2022-09-25T20:46:05.364Z,1.47
2022-09-25T20:48:36.079Z,1.20
2022-09-25T20:51:04.057Z,1.30
2022-09-25T20:53:31.475Z,1.20
2022-09-25T20:56:06.145Z,1.33
2022-09-25T20:58:34.099Z,1.10
2022-09-25T21:01:02.676Z,1.23
2022-09-25T21:03:31.762Z,1.20
2022-09-25T21:06:01.753Z,1.10
2022-09-25T21:08:29.774Z,1.10
2022-09-25T21:10:57.434Z,1.27
2022-09-25T21:13:27.130Z,1.10
2022-09-25T21:15:55.179Z,1.27
2022-09-25T21:18:22.580Z,1.20
2022-09-25T21:20:50.003Z,1.20
2022-09-25T21:23:17.707Z,1.23
2022-09-25T21:25:45.257Z,1.10
2022-09-25T21:28:12.667Z,1.10
2022-09-25T21:30:41.577Z,1.30
2022-09-25T21:33:09.119Z,1.00
2022-09-25T21:35:36.539Z,0.90
2022-09-25T21:38:03.990Z,1.10
2022-09-25T21:40:31.584Z,1.20
2022-09-25T21:42:59.035Z,1.20
2022-09-25T21:45:26.559Z,1.20
2022-09-25T21:47:55.350Z,1.27
2022-09-25T21:50:22.766Z,1.20
2022-09-25T21:52:51.151Z,1.13
2022-09-25T21:55:19.137Z,1.60
2022-09-25T21:57:46.558Z,1.23
2022-09-25T22:00:16.614Z,1.33
2022-09-25T22:02:44.400Z,1.20
2022-09-25T22:05:13.195Z,1.10
2022-09-25T22:07:41.261Z,1.30
2022-09-25T22:10:09.703Z,1.30
2022-09-25T22:12:37.099Z,1.47
2022-09-25T22:15:05.045Z,1.20
2022-09-25T22:17:32.594Z,1.30
2022-09-25T22:20:05.052Z,1.33
2022-09-25T22:22:34.379Z,1.33
2022-09-25T22:25:01.782Z,1.33
2022-09-25T22:27:29.211Z,1.00
2022-09-25T22:29:56.594Z,1.00
2022-09-25T22:32:24.039Z,1.00
2022-09-25T22:34:51.447Z,1.20
2022-09-25T22:37:18.856Z,1.23
2022-09-25T22:39:47.657Z,1.10
2022-09-25T22:42:15.179Z,1.50
2022-09-25T22:44:42.562Z,1.10
2022-09-25T22:47:10.027Z,1.50
2022-09-25T22:49:37.507Z,1.20
2022-09-25T22:52:05.389Z,1.17
2022-09-25T22:54:32.787Z,1.30
2022-09-25T22:57:01.591Z,1.20
2022-09-25T22:59:29.046Z,1.30
2022-09-25T23:01:56.856Z,1.10
2022-09-25T23:04:25.574Z,1.10
2022-09-25T23:06:53.280Z,1.20
2022-09-25T23:09:22.171Z,1.40
2022-09-25T23:11:50.062Z,1.67
2022-09-25T23:14:20.928Z,1.70
2022-09-25T23:16:52.044Z,1.67
2022-09-25T23:19:20.296Z,1.50
2022-09-25T23:21:48.562Z,1.60
2022-09-25T23:24:18.825Z,2.23
2022-09-25T23:26:46.965Z,1.70
2022-09-25T23:29:16.510Z,1.83
2022-09-25T23:31:46.344Z,2.07
2022-09-25T23:34:14.195Z,1.90
2022-09-25T23:36:42.191Z,1.80
2022-09-25T23:39:11.624Z,1.73
2022-09-25T23:41:40.382Z,2.13
2022-09-25T23:44:10.136Z,2.53
2022-09-25T23:46:40.049Z,2.37
2022-09-25T23:49:09.642Z,2.57
2022-09-25T23:51:37.639Z,2.10
2022-09-25T23:54:05.347Z,2.20
2022-09-25T23:56:35.028Z,2.13
2022-09-25T23:59:03.891Z,2.30
